sensor_id;sensor_type;location;lat;lon;timestamp;P1;durP1;ratioP1;P2;durP2;ratioP2
13408;SDS011;6775;49.574;11.170;2022-09-09T00:02:15;0.80;;;0.80;;
13408;SDS011;6775;49.574;11.170;2022-09-09T00:04:49;0.83;;;0.83;;
13408;SDS011;6775;49.574;11.170;2022-09-09T00:07:31;1.30;;;1.00;;
13408;SDS011;6775;49.574;11.170;2022-09-09T00:10:16;1.73;;;1.10;;
13408;SDS011;6775;49.574;11.170;2022-09-09T00:12:51;1.70;;;1.10;;
13408;SDS011;6775;49.574;11.170;2022-09-09T00:15:26;1.00;;;0.90;;
13408;SDS011;6775;49.574;11.170;2022-09-09T00:18:03;1.50;;;0.90;;
13408;SDS011;6775;49.574;11.170;2022-09-09T00:20:42;1.40;;;1.07;;
13408;SDS011;6775;49.574;11.170;2022-09-09T00:23:19;1.77;;;1.00;;
13408;SDS011;6775;49.574;11.170;2022-09-09T00:25:54;1.93;;;0.87;;
13408;SDS011;6775;49.574;11.170;2022-09-09T00:28:29;1.23;;;1.10;;
13408;SDS011;6775;49.574;11.170;2022-09-09T00:31:04;1.40;;;1.17;;
13408;SDS011;6775;49.574;11.170;2022-09-09T00:33:40;1.63;;;1.00;;
13408;SDS011;6775;49.574;11.170;2022-09-09T00:36:12;0.97;;;0.80;;
13408;SDS011;6775;49.574;11.170;2022-09-09T00:38:42;1.67;;;1.20;;
13408;SDS011;6775;49.574;11.170;2022-09-09T00:41:17;2.37;;;1.10;;
13408;SDS011;6775;49.574;11.170;2022-09-09T00:43:52;1.70;;;1.17;;
13408;SDS011;6775;49.574;11.170;2022-09-09T00:46:40;1.47;;;1.10;;
13408;SDS011;6775;49.574;11.170;2022-09-09T00:49:22;1.30;;;1.00;;
13408;SDS011;6775;49.574;11.170;2022-09-09T00:52:02;2.03;;;1.20;;
13408;SDS011;6775;49.574;11.170;2022-09-09T00:54:40;1.50;;;1.00;;
13408;SDS011;6775;49.574;11.170;2022-09-09T00:57:22;1.20;;;1.10;;
13408;SDS011;6775;49.574;11.170;2022-09-09T00:59:58;1.10;;;1.00;;
13408;SDS011;6775;49.574;11.170;2022-09-09T01:02:32;1.87;;;1.40;;
13408;SDS011;6775;49.574;11.170;2022-09-09T01:05:12;1.30;;;1.07;;
13408;SDS011;6775;49.574;11.170;2022-09-09T01:07:44;2.30;;;1.10;;
13408;SDS011;6775;49.574;11.170;2022-09-09T01:10:24;1.87;;;1.23;;
13408;SDS011;6775;49.574;11.170;2022-09-09T01:13:02;0.93;;;0.83;;
13408;SDS011;6775;49.574;11.170;2022-09-09T01:15:37;1.27;;;1.03;;
13408;SDS011;6775;49.574;11.170;2022-09-09T01:18:08;3.47;;;1.20;;
13408;SDS011;6775;49.574;11.170;2022-09-09T01:20:43;2.93;;;1.00;;
13408;SDS011;6775;49.574;11.170;2022-09-09T01:23:22;1.17;;;1.07;;
13408;SDS011;6775;49.574;11.170;2022-09-09T01:26:16;2.60;;;1.20;;
13408;SDS011;6775;49.574;11.170;2022-09-09T01:28:48;2.17;;;1.03;;
13408;SDS011;6775;49.574;11.170;2022-09-09T01:31:19;0.97;;;0.93;;
13408;SDS011;6775;49.574;11.170;2022-09-09T01:33:49;1.47;;;0.93;;
13408;SDS011;6775;49.574;11.170;2022-09-09T01:36:19;1.30;;;0.90;;
13408;SDS011;6775;49.574;11.170;2022-09-09T01:38:52;1.10;;;1.00;;
13408;SDS011;6775;49.574;11.170;2022-09-09T01:41:21;1.00;;;0.87;;
13408;SDS011;6775;49.574;11.170;2022-09-09T01:43:49;1.47;;;0.97;;
13408;SDS011;6775;49.574;11.170;2022-09-09T01:46:17;2.20;;;1.07;;
13408;SDS011;6775;49.574;11.170;2022-09-09T01:48:49;1.93;;;1.30;;
13408;SDS011;6775;49.574;11.170;2022-09-09T01:51:19;1.80;;;1.07;;
13408;SDS011;6775;49.574;11.170;2022-09-09T01:53:47;1.57;;;0.90;;
13408;SDS011;6775;49.574;11.170;2022-09-09T01:56:19;1.47;;;1.00;;
13408;SDS011;6775;49.574;11.170;2022-09-09T01:59:02;1.77;;;1.20;;
13408;SDS011;6775;49.574;11.170;2022-09-09T02:01:43;2.73;;;1.10;;
13408;SDS011;6775;49.574;11.170;2022-09-09T02:04:24;1.23;;;1.00;;
13408;SDS011;6775;49.574;11.170;2022-09-09T02:07:00;1.53;;;1.03;;
13408;SDS011;6775;49.574;11.170;2022-09-09T02:09:29;1.13;;;1.03;;
13408;SDS011;6775;49.574;11.170;2022-09-09T02:11:59;0.73;;;0.73;;
13408;SDS011;6775;49.574;11.170;2022-09-09T02:14:35;1.27;;;1.03;;
13408;SDS011;6775;49.574;11.170;2022-09-09T02:17:07;1.20;;;1.10;;
13408;SDS011;6775;49.574;11.170;2022-09-09T02:19:37;2.13;;;1.10;;
13408;SDS011;6775;49.574;11.170;2022-09-09T02:22:12;1.60;;;1.23;;
13408;SDS011;6775;49.574;11.170;2022-09-09T02:24:40;0.80;;;0.80;;
13408;SDS011;6775;49.574;11.170;2022-09-09T02:27:09;1.10;;;1.00;;
13408;SDS011;6775;49.574;11.170;2022-09-09T02:29:39;1.60;;;1.10;;
13408;SDS011;6775;49.574;11.170;2022-09-09T02:32:11;0.97;;;0.90;;
13408;SDS011;6775;49.574;11.170;2022-09-09T02:34:42;0.93;;;0.80;;
13408;SDS011;6775;49.574;11.170;2022-09-09T02:37:12;1.20;;;1.10;;
13408;SDS011;6775;49.574;11.170;2022-09-09T02:39:43;1.13;;;0.90;;
13408;SDS011;6775;49.574;11.170;2022-09-09T02:42:12;1.03;;;0.90;;
13408;SDS011;6775;49.574;11.170;2022-09-09T02:44:40;1.77;;;1.07;;
13408;SDS011;6775;49.574;11.170;2022-09-09T02:47:18;0.80;;;0.80;;
13408;SDS011;6775;49.574;11.170;2022-09-09T02:50:02;2.47;;;1.30;;
13408;SDS011;6775;49.574;11.170;2022-09-09T02:52:38;0.90;;;0.90;;
13408;SDS011;6775;49.574;11.170;2022-09-09T02:55:22;3.07;;;0.90;;
13408;SDS011;6775;49.574;11.170;2022-09-09T02:57:59;1.53;;;1.17;;
13408;SDS011;6775;49.574;11.170;2022-09-09T03:00:30;0.97;;;0.90;;
13408;SDS011;6775;49.574;11.170;2022-09-09T03:02:58;3.10;;;1.10;;
13408;SDS011;6775;49.574;11.170;2022-09-09T03:05:26;2.03;;;1.07;;
13408;SDS011;6775;49.574;11.170;2022-09-09T03:07:54;1.80;;;1.10;;
13408;SDS011;6775;49.574;11.170;2022-09-09T03:10:22;1.43;;;1.03;;
13408;SDS011;6775;49.574;11.170;2022-09-09T03:12:50;2.33;;;1.20;;
13408;SDS011;6775;49.574;11.170;2022-09-09T03:15:19;1.17;;;0.93;;
13408;SDS011;6775;49.574;11.170;2022-09-09T03:17:47;3.17;;;1.23;;
13408;SDS011;6775;49.574;11.170;2022-09-09T03:20:15;1.70;;;0.90;;
13408;SDS011;6775;49.574;11.170;2022-09-09T03:22:43;1.27;;;0.90;;
13408;SDS011;6775;49.574;11.170;2022-09-09T03:25:11;1.30;;;1.20;;
13408;SDS011;6775;49.574;11.170;2022-09-09T03:27:39;1.80;;;0.90;;
13408;SDS011;6775;49.574;11.170;2022-09-09T03:30:07;2.43;;;1.00;;
13408;SDS011;6775;49.574;11.170;2022-09-09T03:32:37;1.23;;;1.10;;
13408;SDS011;6775;49.574;11.170;2022-09-09T03:35:06;1.13;;;1.03;;
13408;SDS011;6775;49.574;11.170;2022-09-09T03:37:35;1.60;;;1.10;;
13408;SDS011;6775;49.574;11.170;2022-09-09T03:40:05;1.10;;;1.00;;
13408;SDS011;6775;49.574;11.170;2022-09-09T03:42:34;2.00;;;1.17;;
13408;SDS011;6775;49.574;11.170;2022-09-09T03:45:03;1.30;;;0.90;;
13408;SDS011;6775;49.574;11.170;2022-09-09T03:47:31;2.07;;;1.00;;
13408;SDS011;6775;49.574;11.170;2022-09-09T03:50:01;1.30;;;1.20;;
13408;SDS011;6775;49.574;11.170;2022-09-09T03:52:30;1.60;;;0.97;;
13408;SDS011;6775;49.574;11.170;2022-09-09T03:54:58;1.00;;;1.00;;
13408;SDS011;6775;49.574;11.170;2022-09-09T03:57:25;1.23;;;0.97;;
13408;SDS011;6775;49.574;11.170;2022-09-09T03:59:53;1.13;;;0.87;;
13408;SDS011;6775;49.574;11.170;2022-09-09T04:02:21;3.17;;;1.10;;
13408;SDS011;6775;49.574;11.170;2022-09-09T04:04:49;1.47;;;1.37;;
13408;SDS011;6775;49.574;11.170;2022-09-09T04:07:19;1.83;;;1.10;;
13408;SDS011;6775;49.574;11.170;2022-09-09T04:09:47;1.20;;;1.10;;
13408;SDS011;6775;49.574;11.170;2022-09-09T04:12:15;1.20;;;1.10;;
13408;SDS011;6775;49.574;11.170;2022-09-09T04:14:44;3.10;;;1.20;;
13408;SDS011;6775;49.574;11.170;2022-09-09T04:17:11;4.27;;;1.50;;
13408;SDS011;6775;49.574;11.170;2022-09-09T04:19:39;1.90;;;1.37;;
13408;SDS011;6775;49.574;11.170;2022-09-09T04:22:08;3.50;;;1.63;;
13408;SDS011;6775;49.574;11.170;2022-09-09T04:24:37;2.67;;;1.37;;
13408;SDS011;6775;49.574;11.170;2022-09-09T04:27:05;2.57;;;1.37;;
13408;SDS011;6775;49.574;11.170;2022-09-09T04:29:33;2.43;;;1.40;;
13408;SDS011;6775;49.574;11.170;2022-09-09T04:32:01;1.50;;;1.37;;
13408;SDS011;6775;49.574;11.170;2022-09-09T04:34:29;1.30;;;1.20;;
13408;SDS011;6775;49.574;11.170;2022-09-09T04:36:57;2.40;;;1.70;;
13408;SDS011;6775;49.574;11.170;2022-09-09T04:39:26;1.67;;;1.20;;
13408;SDS011;6775;49.574;11.170;2022-09-09T04:41:56;1.27;;;1.17;;
13408;SDS011;6775;49.574;11.170;2022-09-09T04:44:24;1.67;;;1.13;;
13408;SDS011;6775;49.574;11.170;2022-09-09T04:46:52;1.50;;;1.10;;
13408;SDS011;6775;49.574;11.170;2022-09-09T04:49:20;1.60;;;1.37;;
13408;SDS011;6775;49.574;11.170;2022-09-09T04:51:48;1.47;;;1.20;;
13408;SDS011;6775;49.574;11.170;2022-09-09T04:54:16;1.00;;;1.00;;
13408;SDS011;6775;49.574;11.170;2022-09-09T04:56:44;2.03;;;1.20;;
13408;SDS011;6775;49.574;11.170;2022-09-09T04:59:13;1.83;;;1.20;;
13408;SDS011;6775;49.574;11.170;2022-09-09T05:01:41;1.83;;;1.03;;
13408;SDS011;6775;49.574;11.170;2022-09-09T05:04:09;1.30;;;1.17;;
13408;SDS011;6775;49.574;11.170;2022-09-09T05:06:37;1.77;;;1.20;;
13408;SDS011;6775;49.574;11.170;2022-09-09T05:09:05;1.27;;;1.00;;
13408;SDS011;6775;49.574;11.170;2022-09-09T05:11:33;1.50;;;1.20;;
13408;SDS011;6775;49.574;11.170;2022-09-09T05:14:02;1.63;;;1.20;;
13408;SDS011;6775;49.574;11.170;2022-09-09T05:16:32;1.40;;;1.30;;
13408;SDS011;6775;49.574;11.170;2022-09-09T05:19:00;0.83;;;0.83;;
13408;SDS011;6775;49.574;11.170;2022-09-09T05:21:29;1.33;;;1.10;;
13408;SDS011;6775;49.574;11.170;2022-09-09T05:23:57;1.40;;;1.10;;
13408;SDS011;6775;49.574;11.170;2022-09-09T05:26:26;2.40;;;1.20;;
13408;SDS011;6775;49.574;11.170;2022-09-09T05:28:55;2.50;;;1.40;;
13408;SDS011;6775;49.574;11.170;2022-09-09T05:31:25;1.37;;;1.10;;
13408;SDS011;6775;49.574;11.170;2022-09-09T05:33:55;3.33;;;1.50;;
13408;SDS011;6775;49.574;11.170;2022-09-09T05:36:25;1.67;;;1.17;;
13408;SDS011;6775;49.574;11.170;2022-09-09T05:38:53;1.33;;;1.23;;
13408;SDS011;6775;49.574;11.170;2022-09-09T05:41:20;2.60;;;1.27;;
13408;SDS011;6775;49.574;11.170;2022-09-09T05:43:49;1.00;;;0.90;;
13408;SDS011;6775;49.574;11.170;2022-09-09T05:46:18;1.23;;;1.00;;
13408;SDS011;6775;49.574;11.170;2022-09-09T05:48:48;2.93;;;1.40;;
13408;SDS011;6775;49.574;11.170;2022-09-09T05:51:20;1.70;;;1.17;;
13408;SDS011;6775;49.574;11.170;2022-09-09T05:53:50;3.87;;;2.07;;
13408;SDS011;6775;49.574;11.170;2022-09-09T05:56:19;2.23;;;1.40;;
13408;SDS011;6775;49.574;11.170;2022-09-09T05:58:48;2.00;;;1.20;;
13408;SDS011;6775;49.574;11.170;2022-09-09T06:01:18;1.20;;;1.10;;
13408;SDS011;6775;49.574;11.170;2022-09-09T06:03:47;1.30;;;1.20;;
13408;SDS011;6775;49.574;11.170;2022-09-09T06:06:17;1.70;;;1.27;;
13408;SDS011;6775;49.574;11.170;2022-09-09T06:08:49;1.87;;;1.07;;
13408;SDS011;6775;49.574;11.170;2022-09-09T06:11:19;1.77;;;1.20;;
13408;SDS011;6775;49.574;11.170;2022-09-09T06:13:48;3.77;;;1.33;;
13408;SDS011;6775;49.574;11.170;2022-09-09T06:16:18;2.53;;;1.30;;
13408;SDS011;6775;49.574;11.170;2022-09-09T06:18:46;1.23;;;0.90;;
13408;SDS011;6775;49.574;11.170;2022-09-09T06:21:16;1.43;;;1.00;;
13408;SDS011;6775;49.574;11.170;2022-09-09T06:23:46;1.43;;;1.00;;
13408;SDS011;6775;49.574;11.170;2022-09-09T06:26:15;1.77;;;1.20;;
13408;SDS011;6775;49.574;11.170;2022-09-09T06:28:44;1.27;;;1.17;;
13408;SDS011;6775;49.574;11.170;2022-09-09T06:31:14;1.87;;;1.10;;
13408;SDS011;6775;49.574;11.170;2022-09-09T06:33:51;1.87;;;1.20;;
13408;SDS011;6775;49.574;11.170;2022-09-09T06:36:22;1.87;;;1.30;;
13408;SDS011;6775;49.574;11.170;2022-09-09T06:38:53;2.10;;;1.10;;
13408;SDS011;6775;49.574;11.170;2022-09-09T06:41:23;2.33;;;1.20;;
13408;SDS011;6775;49.574;11.170;2022-09-09T06:43:53;1.10;;;0.90;;
13408;SDS011;6775;49.574;11.170;2022-09-09T06:46:22;0.90;;;0.90;;
13408;SDS011;6775;49.574;11.170;2022-09-09T06:48:53;3.53;;;1.13;;
13408;SDS011;6775;49.574;11.170;2022-09-09T06:51:23;1.30;;;0.90;;
13408;SDS011;6775;49.574;11.170;2022-09-09T06:53:55;1.67;;;0.70;;
13408;SDS011;6775;49.574;11.170;2022-09-09T06:56:25;1.27;;;1.00;;
13408;SDS011;6775;49.574;11.170;2022-09-09T06:58:54;1.43;;;0.90;;
13408;SDS011;6775;49.574;11.170;2022-09-09T07:01:25;0.70;;;0.70;;
13408;SDS011;6775;49.574;11.170;2022-09-09T07:03:54;0.83;;;0.80;;
13408;SDS011;6775;49.574;11.170;2022-09-09T07:06:24;1.70;;;1.00;;
13408;SDS011;6775;49.574;11.170;2022-09-09T07:08:53;2.70;;;1.20;;
13408;SDS011;6775;49.574;11.170;2022-09-09T07:11:25;1.33;;;0.97;;
13408;SDS011;6775;49.574;11.170;2022-09-09T07:13:56;0.97;;;0.97;;
13408;SDS011;6775;49.574;11.170;2022-09-09T07:16:25;3.77;;;1.27;;
13408;SDS011;6775;49.574;11.170;2022-09-09T07:18:54;1.40;;;1.00;;
13408;SDS011;6775;49.574;11.170;2022-09-09T07:21:24;2.97;;;1.50;;
13408;SDS011;6775;49.574;11.170;2022-09-09T07:23:53;1.27;;;1.17;;
13408;SDS011;6775;49.574;11.170;2022-09-09T07:26:24;1.73;;;1.00;;
13408;SDS011;6775;49.574;11.170;2022-09-09T07:28:53;2.10;;;1.00;;
13408;SDS011;6775;49.574;11.170;2022-09-09T07:31:23;2.67;;;1.13;;
13408;SDS011;6775;49.574;11.170;2022-09-09T07:33:52;2.40;;;1.03;;
13408;SDS011;6775;49.574;11.170;2022-09-09T07:36:21;2.27;;;1.10;;
13408;SDS011;6775;49.574;11.170;2022-09-09T07:38:57;1.60;;;1.10;;
13408;SDS011;6775;49.574;11.170;2022-09-09T07:41:27;1.07;;;0.97;;
13408;SDS011;6775;49.574;11.170;2022-09-09T07:43:56;1.13;;;1.00;;
13408;SDS011;6775;49.574;11.170;2022-09-09T07:46:25;0.90;;;0.80;;
13408;SDS011;6775;49.574;11.170;2022-09-09T07:48:54;1.50;;;0.90;;
13408;SDS011;6775;49.574;11.170;2022-09-09T07:51:24;0.80;;;0.80;;
13408;SDS011;6775;49.574;11.170;2022-09-09T07:53:55;2.23;;;0.93;;
13408;SDS011;6775;49.574;11.170;2022-09-09T07:56:25;0.97;;;0.90;;
13408;SDS011;6775;49.574;11.170;2022-09-09T07:58:55;0.80;;;0.80;;
13408;SDS011;6775;49.574;11.170;2022-09-09T08:01:25;0.60;;;0.60;;
13408;SDS011;6775;49.574;11.170;2022-09-09T08:03:55;0.93;;;0.70;;
13408;SDS011;6775;49.574;11.170;2022-09-09T08:06:27;0.57;;;0.57;;
13408;SDS011;6775;49.574;11.170;2022-09-09T08:08:58;2.43;;;0.90;;
13408;SDS011;6775;49.574;11.170;2022-09-09T08:11:27;2.07;;;0.90;;
13408;SDS011;6775;49.574;11.170;2022-09-09T08:14:03;1.33;;;0.70;;
13408;SDS011;6775;49.574;11.170;2022-09-09T08:16:32;1.37;;;0.70;;
13408;SDS011;6775;49.574;11.170;2022-09-09T08:19:02;2.43;;;0.73;;
13408;SDS011;6775;49.574;11.170;2022-09-09T08:21:33;1.00;;;0.63;;
13408;SDS011;6775;49.574;11.170;2022-09-09T08:24:04;0.70;;;0.70;;
13408;SDS011;6775;49.574;11.170;2022-09-09T08:26:33;1.23;;;0.80;;
13408;SDS011;6775;49.574;11.170;2022-09-09T08:29:04;1.53;;;0.90;;
13408;SDS011;6775;49.574;11.170;2022-09-09T08:31:34;1.50;;;0.90;;
13408;SDS011;6775;49.574;11.170;2022-09-09T08:34:04;0.80;;;0.80;;
13408;SDS011;6775;49.574;11.170;2022-09-09T08:36:34;0.70;;;0.67;;
13408;SDS011;6775;49.574;11.170;2022-09-09T08:39:05;1.67;;;0.80;;
13408;SDS011;6775;49.574;11.170;2022-09-09T08:41:37;1.23;;;0.90;;
13408;SDS011;6775;49.574;11.170;2022-09-09T08:44:18;0.73;;;0.60;;
13408;SDS011;6775;49.574;11.170;2022-09-09T08:46:56;0.60;;;0.60;;
13408;SDS011;6775;49.574;11.170;2022-09-09T08:49:38;0.97;;;0.80;;
13408;SDS011;6775;49.574;11.170;2022-09-09T08:52:25;1.13;;;0.60;;
13408;SDS011;6775;49.574;11.170;2022-09-09T08:54:57;1.53;;;0.80;;
13408;SDS011;6775;49.574;11.170;2022-09-09T08:57:38;0.53;;;0.53;;
13408;SDS011;6775;49.574;11.170;2022-09-09T09:00:08;2.20;;;0.80;;
13408;SDS011;6775;49.574;11.170;2022-09-09T09:02:38;0.87;;;0.70;;
13408;SDS011;6775;49.574;11.170;2022-09-09T09:05:15;1.20;;;0.67;;
13408;SDS011;6775;49.574;11.170;2022-09-09T09:07:54;1.27;;;0.80;;
13408;SDS011;6775;49.574;11.170;2022-09-09T09:10:39;2.67;;;0.70;;
13408;SDS011;6775;49.574;11.170;2022-09-09T09:13:14;1.37;;;0.67;;
13408;SDS011;6775;49.574;11.170;2022-09-09T09:15:48;0.90;;;0.50;;
13408;SDS011;6775;49.574;11.170;2022-09-09T09:18:21;1.70;;;0.50;;
13408;SDS011;6775;49.574;11.170;2022-09-09T09:20:50;1.97;;;0.60;;
13408;SDS011;6775;49.574;11.170;2022-09-09T09:23:34;0.83;;;0.50;;
13408;SDS011;6775;49.574;11.170;2022-09-09T09:26:09;1.07;;;0.40;;
13408;SDS011;6775;49.574;11.170;2022-09-09T09:28:38;1.77;;;0.70;;
13408;SDS011;6775;49.574;11.170;2022-09-09T09:31:09;0.73;;;0.60;;
13408;SDS011;6775;49.574;11.170;2022-09-09T09:33:40;1.60;;;0.60;;
13408;SDS011;6775;49.574;11.170;2022-09-09T09:36:13;2.77;;;0.73;;
13408;SDS011;6775;49.574;11.170;2022-09-09T09:38:51;0.90;;;0.60;;
13408;SDS011;6775;49.574;11.170;2022-09-09T09:41:43;6.43;;;1.37;;
13408;SDS011;6775;49.574;11.170;2022-09-09T09:44:21;3.77;;;0.97;;
13408;SDS011;6775;49.574;11.170;2022-09-09T09:46:51;0.70;;;0.60;;
13408;SDS011;6775;49.574;11.170;2022-09-09T09:49:20;0.63;;;0.60;;
13408;SDS011;6775;49.574;11.170;2022-09-09T09:51:49;2.00;;;0.63;;
13408;SDS011;6775;49.574;11.170;2022-09-09T09:54:21;1.27;;;0.60;;
13408;SDS011;6775;49.574;11.170;2022-09-09T09:56:56;0.80;;;0.50;;
13408;SDS011;6775;49.574;11.170;2022-09-09T09:59:35;0.70;;;0.57;;
13408;SDS011;6775;49.574;11.170;2022-09-09T10:02:11;2.00;;;0.60;;
13408;SDS011;6775;49.574;11.170;2022-09-09T10:04:45;1.20;;;0.60;;
13408;SDS011;6775;49.574;11.170;2022-09-09T10:07:17;1.87;;;0.80;;
13408;SDS011;6775;49.574;11.170;2022-09-09T10:09:46;1.13;;;0.60;;
13408;SDS011;6775;49.574;11.170;2022-09-09T10:12:23;1.90;;;0.80;;
13408;SDS011;6775;49.574;11.170;2022-09-09T10:14:59;1.57;;;0.60;;
13408;SDS011;6775;49.574;11.170;2022-09-09T10:17:36;0.97;;;0.50;;
13408;SDS011;6775;49.574;11.170;2022-09-09T10:20:17;2.60;;;0.60;;
13408;SDS011;6775;49.574;11.170;2022-09-09T10:22:58;1.20;;;0.50;;
13408;SDS011;6775;49.574;11.170;2022-09-09T10:25:41;1.27;;;0.43;;
13408;SDS011;6775;49.574;11.170;2022-09-09T10:28:27;1.33;;;0.50;;
13408;SDS011;6775;49.574;11.170;2022-09-09T10:31:04;2.03;;;0.90;;
13408;SDS011;6775;49.574;11.170;2022-09-09T10:33:45;0.87;;;0.50;;
13408;SDS011;6775;49.574;11.170;2022-09-09T10:36:19;1.30;;;0.60;;
13408;SDS011;6775;49.574;11.170;2022-09-09T10:38:52;2.57;;;0.70;;
13408;SDS011;6775;49.574;11.170;2022-09-09T10:41:30;0.80;;;0.50;;
13408;SDS011;6775;49.574;11.170;2022-09-09T10:44:17;1.30;;;0.50;;
13408;SDS011;6775;49.574;11.170;2022-09-09T10:46:57;2.00;;;0.70;;
13408;SDS011;6775;49.574;11.170;2022-09-09T10:49:43;1.87;;;0.57;;
13408;SDS011;6775;49.574;11.170;2022-09-09T10:52:40;1.83;;;0.50;;
13408;SDS011;6775;49.574;11.170;2022-09-09T10:55:18;1.90;;;0.50;;
13408;SDS011;6775;49.574;11.170;2022-09-09T10:57:53;2.23;;;0.53;;
13408;SDS011;6775;49.574;11.170;2022-09-09T11:00:25;2.17;;;0.60;;
13408;SDS011;6775;49.574;11.170;2022-09-09T11:02:58;1.40;;;0.53;;
13408;SDS011;6775;49.574;11.170;2022-09-09T11:05:29;1.53;;;0.60;;
13408;SDS011;6775;49.574;11.170;2022-09-09T11:08:04;1.73;;;0.67;;
13408;SDS011;6775;49.574;11.170;2022-09-09T11:10:39;0.40;;;0.40;;
13408;SDS011;6775;49.574;11.170;2022-09-09T11:13:14;0.83;;;0.43;;
13408;SDS011;6775;49.574;11.170;2022-09-09T11:15:49;2.13;;;0.60;;
13408;SDS011;6775;49.574;11.170;2022-09-09T11:18:19;2.50;;;0.80;;
13408;SDS011;6775;49.574;11.170;2022-09-09T11:20:50;1.53;;;0.50;;
13408;SDS011;6775;49.574;11.170;2022-09-09T11:23:22;1.90;;;0.80;;
13408;SDS011;6775;49.574;11.170;2022-09-09T11:25:55;2.17;;;0.63;;
13408;SDS011;6775;49.574;11.170;2022-09-09T11:28:32;1.90;;;0.40;;
13408;SDS011;6775;49.574;11.170;2022-09-09T11:31:17;2.20;;;0.50;;
13408;SDS011;6775;49.574;11.170;2022-09-09T11:34:03;1.77;;;0.60;;
13408;SDS011;6775;49.574;11.170;2022-09-09T11:42:35;1.43;;;0.60;;
13408;SDS011;6775;49.574;11.170;2022-09-09T11:45:19;2.87;;;0.50;;
13408;SDS011;6775;49.574;11.170;2022-09-09T11:47:53;3.17;;;0.70;;
13408;SDS011;6775;49.574;11.170;2022-09-09T11:50:29;1.93;;;0.50;;
13408;SDS011;6775;49.574;11.170;2022-09-09T11:53:04;1.47;;;0.50;;
13408;SDS011;6775;49.574;11.170;2022-09-09T11:55:47;1.90;;;0.80;;
13408;SDS011;6775;49.574;11.170;2022-09-09T11:58:15;1.43;;;0.50;;
13408;SDS011;6775;49.574;11.170;2022-09-09T12:00:45;1.17;;;0.40;;
13408;SDS011;6775;49.574;11.170;2022-09-09T12:06:10;3.10;;;0.60;;
13408;SDS011;6775;49.574;11.170;2022-09-09T12:08:44;1.93;;;0.60;;
13408;SDS011;6775;49.574;11.170;2022-09-09T12:11:23;2.80;;;0.60;;
13408;SDS011;6775;49.574;11.170;2022-09-09T12:13:53;2.00;;;0.70;;
13408;SDS011;6775;49.574;11.170;2022-09-09T12:16:30;3.87;;;1.20;;
13408;SDS011;6775;49.574;11.170;2022-09-09T12:19:06;0.80;;;0.70;;
13408;SDS011;6775;49.574;11.170;2022-09-09T12:21:44;1.37;;;0.60;;
13408;SDS011;6775;49.574;11.170;2022-09-09T12:24:19;1.17;;;0.53;;
13408;SDS011;6775;49.574;11.170;2022-09-09T12:26:56;3.13;;;0.60;;
13408;SDS011;6775;49.574;11.170;2022-09-09T12:29:32;2.93;;;0.60;;
13408;SDS011;6775;49.574;11.170;2022-09-09T12:32:09;4.63;;;0.93;;
13408;SDS011;6775;49.574;11.170;2022-09-09T12:34:42;2.37;;;0.70;;
13408;SDS011;6775;49.574;11.170;2022-09-09T12:37:16;1.70;;;0.53;;
13408;SDS011;6775;49.574;11.170;2022-09-09T12:39:52;2.53;;;0.77;;
13408;SDS011;6775;49.574;11.170;2022-09-09T12:42:23;0.87;;;0.60;;
13408;SDS011;6775;49.574;11.170;2022-09-09T12:44:52;2.13;;;0.50;;
13408;SDS011;6775;49.574;11.170;2022-09-09T12:47:21;1.17;;;0.57;;
13408;SDS011;6775;49.574;11.170;2022-09-09T12:49:57;1.00;;;0.40;;
13408;SDS011;6775;49.574;11.170;2022-09-09T12:52:27;0.87;;;0.40;;
13408;SDS011;6775;49.574;11.170;2022-09-09T12:54:58;3.47;;;0.70;;
13408;SDS011;6775;49.574;11.170;2022-09-09T12:57:31;2.13;;;0.50;;
13408;SDS011;6775;49.574;11.170;2022-09-09T13:00:07;1.43;;;0.50;;
13408;SDS011;6775;49.574;11.170;2022-09-09T13:02:46;2.50;;;0.60;;
13408;SDS011;6775;49.574;11.170;2022-09-09T13:05:18;1.17;;;0.50;;
13408;SDS011;6775;49.574;11.170;2022-09-09T13:07:49;1.17;;;0.47;;
13408;SDS011;6775;49.574;11.170;2022-09-09T13:10:21;2.37;;;0.60;;
13408;SDS011;6775;49.574;11.170;2022-09-09T13:13:12;1.37;;;0.57;;
13408;SDS011;6775;49.574;11.170;2022-09-09T13:15:47;1.07;;;0.50;;
13408;SDS011;6775;49.574;11.170;2022-09-09T13:18:17;1.30;;;0.60;;
13408;SDS011;6775;49.574;11.170;2022-09-09T13:20:51;1.60;;;0.43;;
13408;SDS011;6775;49.574;11.170;2022-09-09T13:23:20;1.57;;;0.57;;
13408;SDS011;6775;49.574;11.170;2022-09-09T13:25:58;0.90;;;0.33;;
13408;SDS011;6775;49.574;11.170;2022-09-09T13:28:28;0.73;;;0.40;;
13408;SDS011;6775;49.574;11.170;2022-09-09T13:31:00;0.50;;;0.27;;
13408;SDS011;6775;49.574;11.170;2022-09-09T13:33:30;1.90;;;0.50;;
13408;SDS011;6775;49.574;11.170;2022-09-09T13:36:02;1.50;;;0.53;;
13408;SDS011;6775;49.574;11.170;2022-09-09T13:38:33;1.43;;;0.50;;
13408;SDS011;6775;49.574;11.170;2022-09-09T13:41:04;3.77;;;0.80;;
13408;SDS011;6775;49.574;11.170;2022-09-09T13:43:34;1.83;;;0.50;;
13408;SDS011;6775;49.574;11.170;2022-09-09T13:46:06;1.27;;;0.40;;
13408;SDS011;6775;49.574;11.170;2022-09-09T13:48:56;1.23;;;0.30;;
13408;SDS011;6775;49.574;11.170;2022-09-09T13:51:29;1.40;;;0.30;;
13408;SDS011;6775;49.574;11.170;2022-09-09T13:54:01;1.00;;;0.50;;
13408;SDS011;6775;49.574;11.170;2022-09-09T13:56:28;1.47;;;0.50;;
13408;SDS011;6775;49.574;11.170;2022-09-09T13:58:57;0.70;;;0.40;;
13408;SDS011;6775;49.574;11.170;2022-09-09T14:01:25;0.60;;;0.37;;
13408;SDS011;6775;49.574;11.170;2022-09-09T14:03:55;0.60;;;0.30;;
13408;SDS011;6775;49.574;11.170;2022-09-09T14:06:23;1.40;;;0.50;;
13408;SDS011;6775;49.574;11.170;2022-09-09T14:08:52;0.80;;;0.40;;
13408;SDS011;6775;49.574;11.170;2022-09-09T14:11:20;0.50;;;0.40;;
13408;SDS011;6775;49.574;11.170;2022-09-09T14:13:48;1.43;;;0.33;;
13408;SDS011;6775;49.574;11.170;2022-09-09T14:16:17;1.17;;;0.30;;
13408;SDS011;6775;49.574;11.170;2022-09-09T14:18:45;1.53;;;0.40;;
13408;SDS011;6775;49.574;11.170;2022-09-09T14:21:13;0.77;;;0.43;;
13408;SDS011;6775;49.574;11.170;2022-09-09T14:23:42;0.47;;;0.30;;
13408;SDS011;6775;49.574;11.170;2022-09-09T14:26:11;0.50;;;0.40;;
13408;SDS011;6775;49.574;11.170;2022-09-09T14:28:39;2.43;;;0.30;;
13408;SDS011;6775;49.574;11.170;2022-09-09T14:31:20;0.70;;;0.30;;
13408;SDS011;6775;49.574;11.170;2022-09-09T14:33:49;0.70;;;0.40;;
13408;SDS011;6775;49.574;11.170;2022-09-09T14:36:18;0.70;;;0.33;;
13408;SDS011;6775;49.574;11.170;2022-09-09T14:38:46;0.63;;;0.20;;
13408;SDS011;6775;49.574;11.170;2022-09-09T14:41:17;0.60;;;0.40;;
13408;SDS011;6775;49.574;11.170;2022-09-09T14:43:48;1.33;;;0.30;;
13408;SDS011;6775;49.574;11.170;2022-09-09T14:46:18;0.30;;;0.30;;
13408;SDS011;6775;49.574;11.170;2022-09-09T14:48:47;0.50;;;0.40;;
13408;SDS011;6775;49.574;11.170;2022-09-09T14:51:16;0.37;;;0.30;;
13408;SDS011;6775;49.574;11.170;2022-09-09T14:53:46;0.73;;;0.40;;
13408;SDS011;6775;49.574;11.170;2022-09-09T14:56:16;0.87;;;0.43;;
13408;SDS011;6775;49.574;11.170;2022-09-09T14:58:45;1.53;;;0.50;;
13408;SDS011;6775;49.574;11.170;2022-09-09T15:01:15;1.70;;;0.63;;
13408;SDS011;6775;49.574;11.170;2022-09-09T15:03:48;1.30;;;0.50;;
13408;SDS011;6775;49.574;11.170;2022-09-09T15:06:18;1.53;;;0.57;;
13408;SDS011;6775;49.574;11.170;2022-09-09T15:08:47;2.60;;;0.63;;
13408;SDS011;6775;49.574;11.170;2022-09-09T15:11:19;0.53;;;0.40;;
13408;SDS011;6775;49.574;11.170;2022-09-09T15:13:51;1.30;;;0.47;;
13408;SDS011;6775;49.574;11.170;2022-09-09T15:16:21;2.80;;;0.70;;
13408;SDS011;6775;49.574;11.170;2022-09-09T15:18:51;1.47;;;0.50;;
13408;SDS011;6775;49.574;11.170;2022-09-09T15:21:21;1.67;;;0.80;;
13408;SDS011;6775;49.574;11.170;2022-09-09T15:23:50;1.17;;;0.50;;
13408;SDS011;6775;49.574;11.170;2022-09-09T15:26:20;1.03;;;0.40;;
13408;SDS011;6775;49.574;11.170;2022-09-09T15:28:48;1.90;;;0.70;;